Time;durP1;ratioP1;P1;durP2;ratioP2;P2;SDS_P1;SDS_P2;PMS_P1;PMS_P2;Temp;Humidity;BMP_temperature;BMP_pressure;BME280_temperature;BME280_humidity;BME280_pressure;Samples;Min_cycle;Max_cycle;Signal;HPM_P1;HPM_P2
2023/05/16 00:01:52;;;;;;;7.18;5.93;;;;;;;;;;4982561;28;20054;-69
2023/05/16 00:04:17;;;;;;;8.75;5.85;;;;;;;;;;4985295;28;20073;-68
2023/05/16 00:06:43;;;;;;;9.88;5.78;;;;;;;;;;4983562;28;20388;-69
2023/05/16 00:09:08;;;;;;;8.30;6.20;;;;;;;;;;4984296;28;20102;-69
2023/05/16 00:11:33;;;;;;;7.18;5.72;;;;;;;;;;4984516;28;20460;-68
2023/05/16 00:14:00;;;;;;;7.15;6.28;;;;;;;;;;4981347;28;20105;-68
2023/05/16 00:16:28;;;;;;;9.52;6.55;;;;;;;;;;4984986;28;20030;-68
2023/05/16 00:18:53;;;;;;;13.52;6.60;;;;;;;;;;4982329;28;20465;-67
2023/05/16 00:21:19;;;;;;;8.32;6.55;;;;;;;;;;4984449;28;20103;-68
2023/05/16 00:23:44;;;;;;;8.85;7.20;;;;;;;;;;4984742;28;20026;-66
2023/05/16 00:26:09;;;;;;;9.60;6.22;;;;;;;;;;4983999;28;20034;-66
2023/05/16 00:28:35;;;;;;;8.20;6.57;;;;;;;;;;4984319;28;20506;-69
2023/05/16 00:31:00;;;;;;;8.98;6.65;;;;;;;;;;4991090;28;20062;-67
2023/05/16 00:33:26;;;;;;;10.35;6.68;;;;;;;;;;4993254;28;20030;-68
2023/05/16 00:35:52;;;;;;;10.13;6.10;;;;;;;;;;4992890;28;20080;-68
2023/05/16 00:38:18;;;;;;;8.88;6.28;;;;;;;;;;4993089;28;20058;-68
2023/05/16 00:40:43;;;;;;;10.32;6.63;;;;;;;;;;4993104;28;20066;-69
2023/05/16 00:43:09;;;;;;;10.45;6.60;;;;;;;;;;4993251;28;20027;-66
2023/05/16 00:45:34;;;;;;;9.70;6.22;;;;;;;;;;4993168;28;20042;-68
2023/05/16 00:48:00;;;;;;;7.80;6.15;;;;;;;;;;4992933;28;20038;-68
2023/05/16 00:50:25;;;;;;;8.02;5.70;;;;;;;;;;5002629;28;20033;-68
2023/05/16 00:52:51;;;;;;;7.20;5.53;;;;;;;;;;5012718;28;20037;-68
2023/05/16 00:55:16;;;;;;;8.48;5.93;;;;;;;;;;5012328;28;20091;-63
2023/05/16 00:57:42;;;;;;;8.38;6.45;;;;;;;;;;5012688;28;20026;-65
2023/05/16 01:00:09;;;;;;;8.57;6.15;;;;;;;;;;5012139;28;20030;-65
2023/05/16 01:02:35;;;;;;;8.65;6.00;;;;;;;;;;5012498;28;20029;-68
2023/05/16 01:05:02;;;;;;;8.38;6.15;;;;;;;;;;5012179;28;20109;-68
2023/05/16 01:07:28;;;;;;;7.88;6.05;;;;;;;;;;5012598;28;20109;-65
2023/05/16 01:09:54;;;;;;;8.50;6.22;;;;;;;;;;5012158;28;20488;-65
2023/05/16 01:12:25;;;;;;;7.18;6.10;;;;;;;;;;5012540;28;20036;-67
2023/05/16 01:15:05;;;;;;;7.13;5.68;;;;;;;;;;5012148;28;20032;-63
2023/05/16 01:17:43;;;;;;;7.50;5.88;;;;;;;;;;5012480;28;20041;-64
2023/05/16 01:20:22;;;;;;;9.52;6.15;;;;;;;;;;5011013;28;20038;-64
2023/05/16 01:23:13;;;;;;;9.23;6.25;;;;;;;;;;4992805;28;20109;-66
2023/05/16 01:25:56;;;;;;;8.25;6.78;;;;;;;;;;4992274;28;20034;-66
2023/05/16 01:28:22;;;;;;;7.47;5.82;;;;;;;;;;4995004;28;20065;-65
2023/05/16 01:30:50;;;;;;;7.22;5.90;;;;;;;;;;4995443;28;20038;-65
2023/05/16 01:33:15;;;;;;;7.88;6.18;;;;;;;;;;4996462;28;20069;-65
2023/05/16 01:36:01;;;;;;;7.88;6.15;;;;;;;;;;4996392;28;20061;-65
2023/05/16 01:38:37;;;;;;;6.43;5.82;;;;;;;;;;4984829;28;20026;-68
2023/05/16 01:41:20;;;;;;;6.80;5.72;;;;;;;;;;4996530;28;20484;-67
2023/05/16 01:43:50;;;;;;;9.85;5.65;;;;;;;;;;4996503;28;20049;-64
2023/05/16 01:46:21;;;;;;;9.07;5.47;;;;;;;;;;4996378;28;20030;-66
2023/05/16 01:48:59;;;;;;;6.72;5.50;;;;;;;;;;4996236;28;20065;-63
2023/05/16 01:51:29;;;;;;;8.98;5.90;;;;;;;;;;4996280;28;20032;-65
2023/05/16 01:54:00;;;;;;;9.43;6.27;;;;;;;;;;4996336;28;20037;-66
2023/05/16 01:56:26;;;;;;;8.30;6.45;;;;;;;;;;4996149;28;20800;-64
2023/05/16 01:58:54;;;;;;;7.30;5.75;;;;;;;;;;4995998;28;20027;-65
2023/05/16 02:01:19;;;;;;;8.50;6.47;;;;;;;;;;4995118;28;20129;-63
2023/05/16 02:03:45;;;;;;;7.18;5.80;;;;;;;;;;4994189;28;20105;-68
2023/05/16 02:06:10;;;;;;;8.88;6.07;;;;;;;;;;4995987;28;20022;-64
2023/05/16 02:08:36;;;;;;;9.98;6.50;;;;;;;;;;4995969;28;20146;-64
2023/05/16 02:11:01;;;;;;;8.70;6.15;;;;;;;;;;4995756;28;20065;-64
2023/05/16 02:13:27;;;;;;;7.85;6.13;;;;;;;;;;4995984;28;20464;-63
2023/05/16 02:15:52;;;;;;;8.57;6.85;;;;;;;;;;4995882;28;20030;-63
2023/05/16 02:18:18;;;;;;;8.60;6.70;;;;;;;;;;4995544;28;20023;-64
2023/05/16 02:20:43;;;;;;;8.13;6.93;;;;;;;;;;4995290;28;20550;-64
2023/05/16 02:23:09;;;;;;;8.85;6.70;;;;;;;;;;4995679;28;20023;-64
2023/05/16 02:25:34;;;;;;;9.00;7.57;;;;;;;;;;4995694;28;20026;-66
2023/05/16 02:27:59;;;;;;;9.82;7.95;;;;;;;;;;4995566;28;20030;-64
2023/05/16 02:30:25;;;;;;;10.80;7.53;;;;;;;;;;4995521;28;20041;-68
2023/05/16 02:32:52;;;;;;;11.02;8.85;;;;;;;;;;4993964;28;20092;-62
2023/05/16 02:35:17;;;;;;;9.88;7.97;;;;;;;;;;4995364;28;20435;-66
2023/05/16 02:37:43;;;;;;;12.90;9.00;;;;;;;;;;4994799;28;20031;-64
2023/05/16 02:40:09;;;;;;;11.90;8.27;;;;;;;;;;4995287;28;20084;-64
2023/05/16 02:42:34;;;;;;;11.68;9.00;;;;;;;;;;4995197;28;20065;-66
2023/05/16 02:45:00;;;;;;;13.30;8.85;;;;;;;;;;4995240;28;20444;-66
2023/05/16 02:47:25;;;;;;;15.10;8.02;;;;;;;;;;4994734;28;20464;-64
2023/05/16 02:49:51;;;;;;;10.73;7.20;;;;;;;;;;4994005;28;20026;-66
2023/05/16 02:52:20;;;;;;;19.45;6.97;;;;;;;;;;4995189;28;20058;-63
2023/05/16 02:54:46;;;;;;;12.75;7.05;;;;;;;;;;4994994;28;20491;-64
2023/05/16 02:57:11;;;;;;;10.27;6.72;;;;;;;;;;4993781;28;20034;-67
2023/05/16 02:59:37;;;;;;;13.05;7.10;;;;;;;;;;4994887;28;20484;-68
2023/05/16 03:02:03;;;;;;;9.38;7.07;;;;;;;;;;4994832;28;20369;-65
2023/05/16 03:04:28;;;;;;;9.52;6.38;;;;;;;;;;4994889;28;20049;-63
2023/05/16 03:06:54;;;;;;;13.40;6.50;;;;;;;;;;4994934;28;20026;-65
2023/05/16 03:09:19;;;;;;;7.63;6.47;;;;;;;;;;4994958;28;20116;-64
2023/05/16 03:11:45;;;;;;;14.15;6.90;;;;;;;;;;4994818;28;20037;-64
2023/05/16 03:14:11;;;;;;;8.15;6.50;;;;;;;;;;4994777;28;20029;-67
2023/05/16 03:16:37;;;;;;;12.32;6.60;;;;;;;;;;4994550;28;20392;-67
2023/05/16 03:19:03;;;;;;;10.35;6.95;;;;;;;;;;4994545;28;20038;-69
2023/05/16 03:21:29;;;;;;;10.60;7.30;;;;;;;;;;4994270;28;20054;-69
2023/05/16 03:23:54;;;;;;;12.95;7.43;;;;;;;;;;4994345;28;20036;-66
2023/05/16 03:26:21;;;;;;;19.63;8.40;;;;;;;;;;4994544;28;20041;-69
2023/05/16 03:28:47;;;;;;;13.30;7.95;;;;;;;;;;4994464;28;20022;-66
2023/05/16 03:31:12;;;;;;;10.32;7.43;;;;;;;;;;4994282;28;20297;-68
2023/05/16 03:33:38;;;;;;;10.10;7.45;;;;;;;;;;4994358;28;20109;-68
2023/05/16 03:36:04;;;;;;;13.48;7.35;;;;;;;;;;4994208;28;20030;-69
2023/05/16 03:38:29;;;;;;;12.38;7.40;;;;;;;;;;4994030;28;20034;-68
2023/05/16 03:40:55;;;;;;;17.67;8.70;;;;;;;;;;4994024;28;20031;-66
2023/05/16 03:43:20;;;;;;;9.10;7.22;;;;;;;;;;4994156;28;20329;-68
2023/05/16 03:45:46;;;;;;;9.60;7.97;;;;;;;;;;4993952;28;20037;-66
2023/05/16 03:48:11;;;;;;;13.32;8.93;;;;;;;;;;4993373;28;20034;-66
2023/05/16 03:50:37;;;;;;;10.73;8.73;;;;;;;;;;4993945;28;20022;-67
2023/05/16 03:53:03;;;;;;;10.77;7.78;;;;;;;;;;4992727;28;20387;-64
2023/05/16 03:55:29;;;;;;;12.55;9.32;;;;;;;;;;4993973;28;20030;-67
2023/05/16 03:57:55;;;;;;;12.70;9.60;;;;;;;;;;4993569;28;20135;-67
2023/05/16 04:00:21;;;;;;;11.27;9.27;;;;;;;;;;4993574;28;20033;-62
2023/05/16 04:02:46;;;;;;;11.70;10.02;;;;;;;;;;4993690;28;20041;-65
2023/05/16 04:05:12;;;;;;;12.18;9.98;;;;;;;;;;4993865;28;20026;-66
2023/05/16 04:07:38;;;;;;;14.82;9.98;;;;;;;;;;4993855;28;20053;-66
2023/05/16 04:10:05;;;;;;;14.70;11.18;;;;;;;;;;4993559;28;20476;-67
2023/05/16 04:12:30;;;;;;;17.38;12.02;;;;;;;;;;4993644;28;20527;-68
2023/05/16 04:14:56;;;;;;;14.02;11.57;;;;;;;;;;4993082;28;20026;-67
2023/05/16 04:17:21;;;;;;;16.75;12.48;;;;;;;;;;4993630;28;20035;-62
2023/05/16 04:19:47;;;;;;;17.42;13.65;;;;;;;;;;4993215;28;20529;-67
2023/05/16 04:22:12;;;;;;;16.80;13.63;;;;;;;;;;4993336;28;20033;-67
2023/05/16 04:24:38;;;;;;;19.17;15.27;;;;;;;;;;4993400;28;20022;-64
2023/05/16 04:27:07;;;;;;;19.50;15.07;;;;;;;;;;4993272;28;20484;-67
2023/05/16 04:29:33;;;;;;;17.95;13.80;;;;;;;;;;4993000;28;20106;-68
2023/05/16 04:31:59;;;;;;;19.35;12.82;;;;;;;;;;4993425;28;20124;-67
2023/05/16 04:34:26;;;;;;;20.00;15.73;;;;;;;;;;4993415;28;20022;-62
2023/05/16 04:36:53;;;;;;;21.77;15.45;;;;;;;;;;5002516;28;20028;-68
2023/05/16 04:39:18;;;;;;;20.98;15.25;;;;;;;;;;4997544;28;20109;-68
2023/05/16 04:41:44;;;;;;;28.48;20.60;;;;;;;;;;4993186;28;20508;-68
2023/05/16 04:44:10;;;;;;;33.90;21.17;;;;;;;;;;4992937;28;20030;-66
2023/05/16 04:46:36;;;;;;;34.08;19.83;;;;;;;;;;4992973;28;20500;-67
2023/05/16 04:49:01;;;;;;;25.50;17.67;;;;;;;;;;4993012;28;20093;-68
2023/05/16 04:51:27;;;;;;;34.95;24.20;;;;;;;;;;4993109;28;20046;-65
2023/05/16 04:53:52;;;;;;;32.25;20.35;;;;;;;;;;4993048;28;20089;-67
2023/05/16 04:56:18;;;;;;;35.00;24.08;;;;;;;;;;4992987;28;20058;-67
2023/05/16 04:58:44;;;;;;;41.15;26.85;;;;;;;;;;4992596;28;20440;-68
2023/05/16 05:01:09;;;;;;;37.67;21.77;;;;;;;;;;4992692;28;20038;-68
2023/05/16 05:03:35;;;;;;;35.80;23.98;;;;;;;;;;4992952;28;20105;-69
2023/05/16 05:06:00;;;;;;;39.80;24.45;;;;;;;;;;4993247;28;20029;-69
2023/05/16 05:08:26;;;;;;;31.60;21.40;;;;;;;;;;4992794;28;20084;-67
2023/05/16 05:10:51;;;;;;;26.08;17.38;;;;;;;;;;4992736;28;20031;-66
2023/05/16 05:13:17;;;;;;;29.20;20.52;;;;;;;;;;4992627;28;20504;-65
2023/05/16 05:15:42;;;;;;;28.35;20.05;;;;;;;;;;4992789;28;20046;-67
2023/05/16 05:18:07;;;;;;;35.70;24.65;;;;;;;;;;4992849;28;20027;-64
2023/05/16 05:20:33;;;;;;;33.80;23.17;;;;;;;;;;4992284;28;20045;-67
2023/05/16 05:22:58;;;;;;;34.28;22.90;;;;;;;;;;4992648;28;20058;-65
2023/05/16 05:25:24;;;;;;;33.05;21.33;;;;;;;;;;4992703;28;20109;-66
2023/05/16 05:27:50;;;;;;;24.25;17.13;;;;;;;;;;4992725;28;20037;-68
2023/05/16 05:30:15;;;;;;;33.22;23.13;;;;;;;;;;4992709;28;20384;-68
2023/05/16 05:32:41;;;;;;;33.38;22.42;;;;;;;;;;4992648;28;20034;-66
2023/05/16 05:35:07;;;;;;;29.45;20.38;;;;;;;;;;4992501;28;20048;-67
2023/05/16 05:37:32;;;;;;;30.98;20.95;;;;;;;;;;4992260;28;20043;-68
2023/05/16 05:39:58;;;;;;;33.95;21.17;;;;;;;;;;4992308;28;20369;-65
2023/05/16 05:42:23;;;;;;;33.47;20.40;;;;;;;;;;4990912;28;20372;-68
2023/05/16 05:44:49;;;;;;;29.00;20.70;;;;;;;;;;4992435;28;20030;-65
2023/05/16 05:47:14;;;;;;;30.67;20.13;;;;;;;;;;4992591;28;20027;-65
2023/05/16 05:49:40;;;;;;;28.50;20.58;;;;;;;;;;4992340;28;20072;-66
2023/05/16 05:52:06;;;;;;;29.98;19.75;;;;;;;;;;4992351;28;20027;-67
2023/05/16 05:54:32;;;;;;;18.83;13.18;;;;;;;;;;4992396;28;20029;-67
2023/05/16 05:56:57;;;;;;;22.48;18.25;;;;;;;;;;4992164;28;20029;-64
2023/05/16 05:59:23;;;;;;;23.40;16.45;;;;;;;;;;4991151;28;20019;-64
2023/05/16 06:01:52;;;;;;;20.90;14.60;;;;;;;;;;4992318;28;20357;-64
2023/05/16 06:04:19;;;;;;;17.85;12.65;;;;;;;;;;4992400;28;20030;-63
2023/05/16 06:06:45;;;;;;;23.65;17.15;;;;;;;;;;4992320;28;20022;-61
2023/05/16 06:09:11;;;;;;;22.48;15.77;;;;;;;;;;4992291;28;20033;-64
2023/05/16 06:11:36;;;;;;;17.88;13.45;;;;;;;;;;4992982;28;20018;-65
2023/05/16 06:14:02;;;;;;;17.25;12.88;;;;;;;;;;4995885;28;20022;-62
2023/05/16 06:16:27;;;;;;;20.90;12.80;;;;;;;;;;4995825;28;20026;-63
2023/05/16 06:18:53;;;;;;;20.35;13.27;;;;;;;;;;4995612;28;20384;-64
2023/05/16 06:21:18;;;;;;;20.55;14.25;;;;;;;;;;4995093;28;20141;-63
2023/05/16 06:23:44;;;;;;;21.90;14.13;;;;;;;;;;4995763;28;20032;-62
2023/05/16 06:26:09;;;;;;;18.27;13.88;;;;;;;;;;4993981;28;20369;-62
2023/05/16 06:28:34;;;;;;;18.05;12.07;;;;;;;;;;4995629;28;20508;-68
2023/05/16 06:31:00;;;;;;;19.80;11.98;;;;;;;;;;4995364;28;20400;-66
2023/05/16 06:33:25;;;;;;;21.80;9.63;;;;;;;;;;4995513;28;20064;-65
2023/05/16 06:35:51;;;;;;;13.32;9.77;;;;;;;;;;4995261;28;20033;-63
2023/05/16 06:38:20;;;;;;;11.55;8.60;;;;;;;;;;4995031;28;20029;-63
2023/05/16 06:40:46;;;;;;;19.40;11.48;;;;;;;;;;4995181;28;20027;-63
2023/05/16 06:43:11;;;;;;;16.63;12.55;;;;;;;;;;4995391;28;20362;-66
2023/05/16 06:45:37;;;;;;;16.13;10.30;;;;;;;;;;4995264;28;20033;-64
2023/05/16 06:48:03;;;;;;;17.27;8.23;;;;;;;;;;4994149;28;20040;-62
2023/05/16 06:50:29;;;;;;;18.30;11.50;;;;;;;;;;4995027;28;20041;-64
2023/05/16 06:52:54;;;;;;;15.02;8.65;;;;;;;;;;4993791;28;20046;-68
2023/05/16 06:55:19;;;;;;;17.25;11.13;;;;;;;;;;4995126;28;20527;-66
2023/05/16 06:57:45;;;;;;;13.45;10.27;;;;;;;;;;4993645;28;20510;-65
2023/05/16 07:00:11;;;;;;;18.67;11.10;;;;;;;;;;4995051;28;20062;-68
2023/05/16 07:02:36;;;;;;;18.52;10.63;;;;;;;;;;4994857;28;20349;-67
2023/05/16 07:05:02;;;;;;;14.85;9.52;;;;;;;;;;4994931;28;20030;-67
2023/05/16 07:07:28;;;;;;;17.25;10.07;;;;;;;;;;4994662;28;20529;-68
2023/05/16 07:09:53;;;;;;;10.90;6.85;;;;;;;;;;4994738;28;20033;-67
2023/05/16 07:12:19;;;;;;;12.05;7.57;;;;;;;;;;4994908;28;20026;-67
2023/05/16 07:14:45;;;;;;;12.90;9.57;;;;;;;;;;4994453;28;20469;-67
2023/05/16 07:17:11;;;;;;;14.40;8.93;;;;;;;;;;4994654;28;20037;-67
2023/05/16 07:19:36;;;;;;;13.15;8.52;;;;;;;;;;4994690;28;20125;-67
2023/05/16 07:22:02;;;;;;;13.80;10.02;;;;;;;;;;4994231;28;20050;-65
2023/05/16 07:24:28;;;;;;;14.32;9.50;;;;;;;;;;4993542;28;20035;-67
2023/05/16 07:26:53;;;;;;;10.93;7.70;;;;;;;;;;4994744;28;20499;-67
2023/05/16 07:29:19;;;;;;;12.85;8.30;;;;;;;;;;4994140;28;20034;-67
2023/05/16 07:31:45;;;;;;;18.05;9.00;;;;;;;;;;4994354;28;20065;-67
2023/05/16 07:34:10;;;;;;;13.70;7.15;;;;;;;;;;4994302;28;20380;-64
2023/05/16 07:36:36;;;;;;;13.55;9.13;;;;;;;;;;4993895;28;20533;-66
2023/05/16 07:39:02;;;;;;;14.65;10.10;;;;;;;;;;4993843;28;20052;-67
2023/05/16 07:41:30;;;;;;;15.88;8.85;;;;;;;;;;4994021;28;20077;-67
2023/05/16 07:43:56;;;;;;;14.90;8.43;;;;;;;;;;4993989;28;20121;-66
2023/05/16 07:46:21;;;;;;;24.77;11.15;;;;;;;;;;4993651;28;20045;-67
2023/05/16 07:48:47;;;;;;;22.02;11.05;;;;;;;;;;4993846;28;20448;-67
2023/05/16 07:51:12;;;;;;;19.83;8.52;;;;;;;;;;4993711;28;20022;-67
2023/05/16 07:53:38;;;;;;;24.70;10.95;;;;;;;;;;4993875;28;20034;-66
2023/05/16 07:56:03;;;;;;;18.00;8.55;;;;;;;;;;4993802;28;20488;-68
2023/05/16 07:58:29;;;;;;;20.98;7.15;;;;;;;;;;4993898;28;20133;-68
2023/05/16 08:00:55;;;;;;;14.45;9.05;;;;;;;;;;4993481;28;20057;-67
2023/05/16 08:03:20;;;;;;;21.73;9.98;;;;;;;;;;4993978;28;20038;-68
2023/05/16 08:05:47;;;;;;;20.60;8.55;;;;;;;;;;4993498;28;20046;-69
2023/05/16 08:08:13;;;;;;;11.10;6.28;;;;;;;;;;4993488;28;20468;-63
2023/05/16 08:10:38;;;;;;;12.68;6.90;;;;;;;;;;4993533;28;20027;-63
2023/05/16 08:13:04;;;;;;;18.73;10.00;;;;;;;;;;4993492;28;20022;-66
2023/05/16 08:15:29;;;;;;;16.40;7.88;;;;;;;;;;4993605;28;20487;-63
2023/05/16 08:17:57;;;;;;;15.23;7.80;;;;;;;;;;4993538;28;20444;-66
2023/05/16 08:20:23;;;;;;;12.23;6.00;;;;;;;;;;4992857;28;20045;-67
2023/05/16 08:22:48;;;;;;;11.68;5.80;;;;;;;;;;4993304;28;20034;-68
2023/05/16 08:25:13;;;;;;;13.23;7.72;;;;;;;;;;4993419;28;20026;-68
2023/05/16 08:27:39;;;;;;;15.48;6.63;;;;;;;;;;4993246;28;20481;-66
2023/05/16 08:30:05;;;;;;;16.92;8.88;;;;;;;;;;4993095;28;20026;-67
2023/05/16 08:32:31;;;;;;;16.80;8.52;;;;;;;;;;4993235;28;20027;-67
2023/05/16 08:34:59;;;;;;;13.95;7.82;;;;;;;;;;4990519;28;20042;-67
2023/05/16 08:37:24;;;;;;;11.68;5.65;;;;;;;;;;4993146;28;20383;-67
2023/05/16 08:39:50;;;;;;;10.15;6.63;;;;;;;;;;4992915;28;20066;-66
2023/05/16 08:42:15;;;;;;;12.30;5.85;;;;;;;;;;4993012;28;20069;-64
2023/05/16 08:44:41;;;;;;;12.30;5.97;;;;;;;;;;5011807;28;20379;-68
2023/05/16 08:47:16;;;;;;;15.02;7.35;;;;;;;;;;5012512;28;20459;-66
2023/05/16 08:49:43;;;;;;;13.13;7.68;;;;;;;;;;5012155;28;20053;-67
2023/05/16 08:52:09;;;;;;;10.73;6.35;;;;;;;;;;5006214;28;20049;-68
2023/05/16 08:54:36;;;;;;;11.90;6.28;;;;;;;;;;4992977;28;20026;-67
2023/05/16 08:57:02;;;;;;;12.63;6.70;;;;;;;;;;4992828;28;20058;-67
2023/05/16 08:59:28;;;;;;;9.40;5.30;;;;;;;;;;4992853;28;20026;-67
2023/05/16 09:01:57;;;;;;;12.70;5.68;;;;;;;;;;4992719;28;20038;-67
2023/05/16 09:04:24;;;;;;;8.73;4.80;;;;;;;;;;4992834;28;20030;-68
2023/05/16 09:06:51;;;;;;;8.45;6.30;;;;;;;;;;4992806;28;20026;-66
2023/05/16 09:09:16;;;;;;;13.90;5.82;;;;;;;;;;4992459;28;20049;-66
2023/05/16 09:11:41;;;;;;;7.65;4.85;;;;;;;;;;4992845;28;20034;-62
2023/05/16 09:14:07;;;;;;;10.05;4.85;;;;;;;;;;4992958;28;20034;-66
2023/05/16 09:16:32;;;;;;;10.35;4.75;;;;;;;;;;4992793;28;20153;-65
2023/05/16 09:19:00;;;;;;;10.93;4.85;;;;;;;;;;4992431;28;20031;-64
2023/05/16 09:21:31;;;;;;;8.48;4.03;;;;;;;;;;4983894;28;20059;-64
2023/05/16 09:24:08;;;;;;;10.07;5.50;;;;;;;;;;4983939;28;20046;-64
2023/05/16 09:26:35;;;;;;;10.02;4.40;;;;;;;;;;4992697;28;20035;-63
2023/05/16 09:29:01;;;;;;;8.73;4.38;;;;;;;;;;4974983;28;20462;-66
2023/05/16 09:31:36;;;;;;;15.93;6.30;;;;;;;;;;4992713;28;20113;-63
2023/05/16 09:34:03;;;;;;;12.80;4.65;;;;;;;;;;5003144;28;20038;-61
2023/05/16 09:36:31;;;;;;;13.18;4.70;;;;;;;;;;5005950;28;20081;-65
2023/05/16 09:38:56;;;;;;;16.13;6.03;;;;;;;;;;4992367;28;20062;-64
2023/05/16 09:41:22;;;;;;;11.48;5.10;;;;;;;;;;4992455;28;20125;-65
2023/05/16 09:43:47;;;;;;;11.02;4.20;;;;;;;;;;4992852;28;20431;-66
2023/05/16 09:46:18;;;;;;;13.27;4.72;;;;;;;;;;4995945;28;20022;-66
2023/05/16 09:48:47;;;;;;;6.22;3.67;;;;;;;;;;4995893;28;20058;-66
2023/05/16 09:51:13;;;;;;;12.75;3.90;;;;;;;;;;4996108;28;20054;-65
2023/05/16 09:53:40;;;;;;;7.25;3.20;;;;;;;;;;4996216;28;20072;-66
2023/05/16 09:56:10;;;;;;;7.35;2.92;;;;;;;;;;4996110;28;20503;-68
2023/05/16 09:58:38;;;;;;;9.98;4.15;;;;;;;;;;4996180;28;20044;-67
2023/05/16 10:01:05;;;;;;;9.90;3.50;;;;;;;;;;4995900;28;20037;-65
2023/05/16 10:03:33;;;;;;;9.93;3.60;;;;;;;;;;4995814;28;20034;-69
2023/05/16 10:06:00;;;;;;;8.35;3.58;;;;;;;;;;4995979;28;20057;-64
2023/05/16 10:08:26;;;;;;;7.32;3.13;;;;;;;;;;4995784;28;20038;-65
2023/05/16 10:10:55;;;;;;;7.32;3.25;;;;;;;;;;4995565;28;20045;-63
2023/05/16 10:13:22;;;;;;;12.32;3.15;;;;;;;;;;4995961;28;20105;-66
2023/05/16 10:15:55;;;;;;;9.50;2.97;;;;;;;;;;4995617;28;20034;-62
2023/05/16 10:18:22;;;;;;;9.35;2.88;;;;;;;;;;4995658;28;20065;-62
2023/05/16 10:20:51;;;;;;;7.25;2.88;;;;;;;;;;4995239;28;20038;-65
2023/05/16 10:23:20;;;;;;;8.80;2.88;;;;;;;;;;4995401;28;20058;-62
2023/05/16 10:25:47;;;;;;;7.97;2.20;;;;;;;;;;4995498;28;20026;-63
2023/05/16 10:28:15;;;;;;;7.88;2.40;;;;;;;;;;4996358;28;20380;-67
2023/05/16 10:30:43;;;;;;;6.40;2.10;;;;;;;;;;5014941;28;20030;-66
2023/05/16 10:33:12;;;;;;;6.20;2.28;;;;;;;;;;5014559;28;20050;-69
2023/05/16 10:35:38;;;;;;;7.97;2.13;;;;;;;;;;5003700;28;20034;-62
2023/05/16 10:38:06;;;;;;;7.30;2.00;;;;;;;;;;4995002;28;20034;-67
2023/05/16 10:40:33;;;;;;;6.65;1.90;;;;;;;;;;4995240;28;20033;-64
2023/05/16 10:43:01;;;;;;;10.18;2.35;;;;;;;;;;4995227;28;20032;-68
2023/05/16 10:45:27;;;;;;;8.18;2.00;;;;;;;;;;4994728;28;20467;-66
2023/05/16 10:47:53;;;;;;;5.90;2.33;;;;;;;;;;4995003;28;20042;-65
2023/05/16 10:50:30;;;;;;;5.75;2.05;;;;;;;;;;4994943;28;20516;-63
2023/05/16 10:53:09;;;;;;;3.83;2.05;;;;;;;;;;4995080;28;20130;-67
2023/05/16 10:55:35;;;;;;;11.45;2.63;;;;;;;;;;4995231;28;20030;-64
2023/05/16 10:58:02;;;;;;;6.80;2.20;;;;;;;;;;4993566;28;20027;-66
2023/05/16 11:00:29;;;;;;;4.70;2.17;;;;;;;;;;4994561;28;20026;-64
2023/05/16 11:03:04;;;;;;;6.65;2.03;;;;;;;;;;4994910;28;20030;-68
2023/05/16 11:05:30;;;;;;;6.45;2.10;;;;;;;;;;4994712;28;20038;-64
2023/05/16 11:08:04;;;;;;;5.60;1.48;;;;;;;;;;4994877;28;20461;-62
2023/05/16 11:10:30;;;;;;;6.72;1.85;;;;;;;;;;4994730;28;20027;-63
2023/05/16 11:13:02;;;;;;;5.43;1.90;;;;;;;;;;4994832;28;20503;-69
2023/05/16 11:15:31;;;;;;;6.00;2.33;;;;;;;;;;4994588;28;20038;-67
2023/05/16 11:18:23;;;;;;;7.80;2.90;;;;;;;;;;4994661;28;20034;-66
2023/05/16 11:20:51;;;;;;;9.73;2.00;;;;;;;;;;4991268;28;20212;-64
2023/05/16 11:23:22;;;;;;;6.57;2.10;;;;;;;;;;4994338;28;20034;-63
2023/05/16 11:25:53;;;;;;;10.30;2.05;;;;;;;;;;4994218;28;20058;-63
2023/05/16 11:28:19;;;;;;;8.48;1.98;;;;;;;;;;4994220;28;20108;-70
2023/05/16 11:30:48;;;;;;;7.95;1.65;;;;;;;;;;5012673;28;20095;-64
2023/05/16 11:33:13;;;;;;;15.43;4.20;;;;;;;;;;5014080;28;20030;-69
2023/05/16 11:35:39;;;;;;;4.95;2.00;;;;;;;;;;5013653;28;20041;-64
2023/05/16 11:38:04;;;;;;;8.15;2.90;;;;;;;;;;4994397;28;20164;-66
2023/05/16 11:40:30;;;;;;;8.98;2.55;;;;;;;;;;4994223;28;20592;-70
2023/05/16 11:43:02;;;;;;;7.35;1.70;;;;;;;;;;4993887;28;20041;-64
2023/05/16 11:45:28;;;;;;;9.25;2.13;;;;;;;;;;4994172;28;20132;-71
2023/05/16 11:47:53;;;;;;;6.60;2.15;;;;;;;;;;4994043;28;20190;-66
2023/05/16 11:50:22;;;;;;;7.78;1.90;;;;;;;;;;4993921;28;20042;-64
2023/05/16 11:52:53;;;;;;;7.55;2.85;;;;;;;;;;4994093;28;20117;-63
2023/05/16 11:55:26;;;;;;;9.43;1.98;;;;;;;;;;4993849;28;20142;-62
2023/05/16 11:57:53;;;;;;;8.05;2.25;;;;;;;;;;4993716;28;20492;-65
2023/05/16 12:00:25;;;;;;;8.05;2.30;;;;;;;;;;4993601;28;20034;-66
2023/05/16 12:02:53;;;;;;;5.40;1.92;;;;;;;;;;4994058;28;20037;-63
2023/05/16 12:05:23;;;;;;;10.82;2.80;;;;;;;;;;4993737;28;20030;-67
2023/05/16 12:07:49;;;;;;;8.10;2.42;;;;;;;;;;4993781;28;20053;-66
2023/05/16 12:10:15;;;;;;;9.35;2.60;;;;;;;;;;4992793;28;20476;-64
2023/05/16 12:12:45;;;;;;;7.25;2.20;;;;;;;;;;4993411;28;20435;-64
2023/05/16 12:15:11;;;;;;;7.78;2.00;;;;;;;;;;4993666;28;20034;-70
2023/05/16 12:17:38;;;;;;;12.18;2.60;;;;;;;;;;4993662;28;20030;-64
2023/05/16 12:20:05;;;;;;;9.40;2.95;;;;;;;;;;4993388;28;20100;-67
2023/05/16 12:22:31;;;;;;;12.00;3.03;;;;;;;;;;4993369;28;20373;-63
2023/05/16 12:25:28;;;;;;;21.77;2.80;;;;;;;;;;4992376;28;20034;-64
2023/05/16 12:27:56;;;;;;;7.20;2.78;;;;;;;;;;4993129;28;20030;-70
2023/05/16 12:30:23;;;;;;;11.65;2.60;;;;;;;;;;5005295;28;20026;-70
2023/05/16 12:33:02;;;;;;;11.73;2.30;;;;;;;;;;5012979;28;20037;-66
2023/05/16 12:35:32;;;;;;;14.23;3.03;;;;;;;;;;5012737;28;20033;-64
2023/05/16 12:38:07;;;;;;;12.73;2.70;;;;;;;;;;4994549;28;20126;-64
2023/05/16 12:40:35;;;;;;;14.48;2.72;;;;;;;;;;4993340;28;20030;-67
2023/05/16 12:43:01;;;;;;;10.75;2.72;;;;;;;;;;4991755;28;20104;-68
2023/05/16 12:45:27;;;;;;;11.70;2.75;;;;;;;;;;4993249;28;20061;-70
2023/05/16 12:47:53;;;;;;;12.00;3.20;;;;;;;;;;4993194;28;20073;-63
2023/05/16 12:50:18;;;;;;;10.50;2.55;;;;;;;;;;4993049;28;20215;-65
2023/05/16 12:52:50;;;;;;;10.35;2.50;;;;;;;;;;4993312;28;20058;-68
2023/05/16 12:55:17;;;;;;;13.10;3.75;;;;;;;;;;4993008;28;20042;-68
2023/05/16 12:57:45;;;;;;;16.20;3.15;;;;;;;;;;4993140;28;20432;-69
2023/05/16 13:00:12;;;;;;;14.48;3.10;;;;;;;;;;4991849;28;20022;-69
2023/05/16 13:02:37;;;;;;;8.23;2.88;;;;;;;;;;4991947;28;20039;-64
2023/05/16 13:05:04;;;;;;;7.35;2.17;;;;;;;;;;4993115;28;20392;-64
2023/05/16 13:07:29;;;;;;;7.93;2.72;;;;;;;;;;4993089;28;20026;-63
2023/05/16 13:09:55;;;;;;;11.55;2.90;;;;;;;;;;4992721;28;20169;-63
2023/05/16 13:12:25;;;;;;;12.80;2.80;;;;;;;;;;4992940;28;20029;-68
2023/05/16 13:14:50;;;;;;;;;;;;;;;;;;4993456;28;20038;-65
2023/05/16 13:17:16;;;;;;;13.75;2.75;;;;;;;;;;4992785;28;19921;-67
2023/05/16 13:19:42;;;;;;;7.95;2.70;;;;;;;;;;4992740;28;20026;-66
2023/05/16 13:22:07;;;;;;;14.25;2.85;;;;;;;;;;4996277;28;20030;-65
2023/05/16 13:24:33;;;;;;;8.43;2.28;;;;;;;;;;4996746;28;20530;-67
2023/05/16 13:26:58;;;;;;;11.23;2.38;;;;;;;;;;4996800;28;20054;-66
2023/05/16 13:29:24;;;;;;;10.60;2.25;;;;;;;;;;5004610;28;20029;-67
2023/05/16 13:31:49;;;;;;;9.63;2.70;;;;;;;;;;5016463;28;20030;-70
2023/05/16 13:34:15;;;;;;;8.63;2.83;;;;;;;;;;5015870;28;20022;-66
2023/05/16 13:36:40;;;;;;;9.88;2.05;;;;;;;;;;5008272;28;20057;-65
2023/05/16 13:39:05;;;;;;;11.43;2.25;;;;;;;;;;4996365;28;20061;-68
2023/05/16 13:41:32;;;;;;;5.75;1.70;;;;;;;;;;4996574;28;20034;-63
2023/05/16 13:43:57;;;;;;;11.10;2.25;;;;;;;;;;4996498;28;20061;-63
2023/05/16 13:46:23;;;;;;;11.07;2.45;;;;;;;;;;4996226;28;20062;-67
2023/05/16 13:48:49;;;;;;;12.15;1.90;;;;;;;;;;4996309;28;20029;-68
2023/05/16 13:51:14;;;;;;;9.38;1.83;;;;;;;;;;4996179;28;20038;-68
2023/05/16 13:53:40;;;;;;;11.90;2.00;;;;;;;;;;4996228;28;20041;-66
2023/05/16 13:56:05;;;;;;;15.15;2.85;;;;;;;;;;4996308;28;20416;-69
2023/05/16 13:58:31;;;;;;;5.60;1.70;;;;;;;;;;4996090;28;20365;-65
2023/05/16 14:00:56;;;;;;;9.60;2.80;;;;;;;;;;4996043;28;20088;-68
2023/05/16 14:03:21;;;;;;;6.70;1.60;;;;;;;;;;4994942;28;20030;-70
2023/05/16 14:05:48;;;;;;;7.80;2.75;;;;;;;;;;4995112;28;20078;-70
2023/05/16 14:08:13;;;;;;;8.13;1.73;;;;;;;;;;4995844;28;20061;-65
2023/05/16 14:10:39;;;;;;;9.27;1.75;;;;;;;;;;4995952;28;20066;-65
2023/05/16 14:13:04;;;;;;;7.00;1.50;;;;;;;;;;4996016;28;20085;-67
2023/05/16 14:15:30;;;;;;;7.25;1.83;;;;;;;;;;4995983;28;20054;-68
2023/05/16 14:17:55;;;;;;;9.00;2.00;;;;;;;;;;4995871;28;20033;-68
2023/05/16 14:20:21;;;;;;;7.15;1.88;;;;;;;;;;4995275;28;20048;-69
2023/05/16 14:22:47;;;;;;;7.47;1.63;;;;;;;;;;4995321;28;20076;-69
2023/05/16 14:25:12;;;;;;;9.75;1.70;;;;;;;;;;4995642;28;20022;-67
2023/05/16 14:27:38;;;;;;;7.13;1.65;;;;;;;;;;4995779;28;20483;-68
2023/05/16 14:30:03;;;;;;;7.90;1.83;;;;;;;;;;5005479;28;20056;-68
2023/05/16 14:32:29;;;;;;;5.93;1.85;;;;;;;;;;5014585;28;20527;-68